Buckville, Arkansas
Current Conditions -  °F | °C
As of 12:19 AM on Monday 24 Nov 2014 (Local Time) from KHOT Reporting Station
Overcast Overcast  
Wind Chill: 54°   Ceiling: 2600
Heat Index: 54°   Visibility: 10mi
Dew Point: 45°   Wind: 13mph
Humidity: 72%   Direction: 300°WNW
Pressure: 29.54"   Gusts: 26mph
Location:  34.7091°N, 93.2208°W
Report Text: KHOT 240619Z AUTO 30011G23KT 10SM BKN026 OVC030 12/07 A2954 RMK AO2 T01220072
Loading
Personal Weather Stations






























Interactive Weather Map New forecast layout! Learn more

10-Day Weather Forecast

Advertisements
Track Severe Weather on mobile